Containerships 6 — DABH — position and weather

sailwx.info

Track history (hours):
 
Tides and Currents Weather Stations Pressure Air Temp Water Temp Dewpoint Dewpoint Depression Visibility Wind Speed Wind Dir Waves Ship Positions

Containerships 6

Last reported at 2016-Jul-27 03:31 UTC. Time now 2016-Jul-27 05:43 UTC.
Position N 60°13' E 025°12'.

Length 155 m; beam 21.8 m; draft 8.9 m.

Type: Ship (hazmat cat A). MMSI: 211315096.

Date/timePositionNaut miles runAvg speedWind from/ knotsBaromVisibWave heightAir tempDewpointWater temp
2016-Jul-27 03:31N 60°13' E 025°12'1111.5
2016-Jul-27 02:33N 60°02' E 025°07'1716.7
2016-Jul-27 01:33N 59°48' E 024°50'1716.8
2016-Jul-27 00:33N 59°43' E 024°18'1616.5
2016-Jul-26 23:33N 59°38' E 023°47'1716.8
2016-Jul-26 22:33N 59°33' E 023°15'1816.8
2016-Jul-26 21:28N 59°27' E 022°41'1516.7
2016-Jul-26 20:33N 59°18' E 022°17'1717.0
2016-Jul-26 19:33N 59°07' E 021°52'8516.9
2016-Jul-26 14:33N 57°60' E 020°13'5917.3
2016-Jul-26 11:08N 57°13' E 019°05'5116.9
2016-Jul-26 08:07N 56°36' E 018°02'2917.3
2016-Jul-26 06:27N 56°19' E 017°19'1617.7
2016-Jul-26 05:33N 56°09' E 016°57'1917.8
2016-Jul-26 04:28N 55°58' E 016°29'1718.2
2016-Jul-26 03:33N 55°49' E 016°03'1818.1
2016-Jul-26 02:34N 55°40' E 015°36'1818.1
2016-Jul-26 01:33N 55°32' E 015°07'1817.9
2016-Jul-26 00:33N 55°23' E 014°40'1817.7
2016-Jul-25 23:33N 55°11' E 014°17'1817.9
2016-Jul-25 22:34N 55°11' E 013°46'1817.6
2016-Jul-25 21:33N 55°14' E 013°15'1717.4
2016-Jul-25 20:33N 55°16' E 012°45'1414.2
2016-Jul-25 19:33N 55°30' E 012°42'1312.8
2016-Jul-25 18:34N 55°43' E 012°41'1716.7
2016-Jul-25 17:34N 56°00' E 012°40'1616.2
2016-Jul-25 16:33N 56°11' E 012°19'2217.0
2016-Jul-25 15:16N 56°30' E 011°58'1317.7
2016-Jul-25 14:34N 56°42' E 011°54'1817.8
2016-Jul-25 13:34N 56°59' E 011°41'1717.2
2016-Jul-25 12:33N 57°15' E 011°31'1716.9
2016-Jul-25 11:33N 57°30' E 011°18'1717.3
2016-Jul-25 10:34N 57°42' E 010°54'1616.3
2016-Jul-25 09:34N 57°45' E 010°24'1818.4
2016-Jul-25 08:33N 57°38' E 009°52'12718.0
2016-Jul-25 01:29N 56°05' E 007°14'1718.2
2016-Jul-25 00:33N 55°50' E 006°59'1818.2
2016-Jul-24 23:34N 55°35' E 006°42'1818.3
2016-Jul-24 22:33N 55°19' E 006°26'2018.5
2016-Jul-24 21:29N 55°02' E 006°07'1718.4
2016-Jul-24 20:33N 54°47' E 005°52'1918.4
2016-Jul-24 19:30N 54°31' E 005°34'1718.3
2016-Jul-24 18:33N 54°16' E 005°19'1818.1
2016-Jul-24 17:34N 54°00' E 005°05'1817.8
2016-Jul-24 16:34N 53°43' E 004°54'2317.4
2016-Jul-24 15:14N 53°22' E 004°40'1217.1
2016-Jul-24 14:33N 53°11' E 004°31'1717.3
2016-Jul-24 13:33N 52°56' E 004°19'1717.2
2016-Jul-24 12:34N 52°41' E 004°05'1716.8
2016-Jul-24 11:34N 52°26' E 003°54'1717.4
2016-Jul-24 10:33N 52°08' E 003°55'1515.0
2016-Jul-24 09:34N 51°57' E 004°11'10 9.7
2016-Jul-24 08:33N 51°53' E 004°25'0 0.1
2016-Jul-24 07:33N 51°53' E 004°25'0 0.0
2016-Jul-24 06:33N 51°53' E 004°25'0 0.0
2016-Jul-24 05:33N 51°53' E 004°25'0 0.0
2016-Jul-24 04:33N 51°53' E 004°25'0 0.0
2016-Jul-24 03:33N 51°53' E 004°25'0 0.0
2016-Jul-24 02:33N 51°53' E 004°25'0 0.0
2016-Jul-24 01:34N 51°53' E 004°25'0 0.0
2016-Jul-24 00:33N 51°53' E 004°25'0 0.0
2016-Jul-23 23:34N 51°53' E 004°25'0 0.0
2016-Jul-23 22:33N 51°53' E 004°25'0 0.0
2016-Jul-23 21:33N 51°53' E 004°25'0 0.0
2016-Jul-23 20:33N 51°53' E 004°25'0 0.0
2016-Jul-23 19:33N 51°53' E 004°25'0 0.4
2016-Jul-23 18:34N 51°53' E 004°24'9 9.4
2016-Jul-23 17:33N 51°57' E 004°11'1515.4
2016-Jul-23 16:33N 52°02' E 003°47'2120.5
2016-Jul-23 15:32N 52°13' E 003°18'2017.6
2016-Jul-23 14:24N 52°24' E 002°51'1719.1
2016-Jul-23 13:30N 52°33' E 002°27'2019.6
2016-Jul-23 12:29N 52°45' E 002°01'1920.0
2016-Jul-23 11:33N 52°56' E 001°36'2120.4
2016-Jul-23 10:33N 53°12' E 001°16'2019.7
2016-Jul-23 09:33N 53°30' E 000°60'1919.4
2016-Jul-23 08:33N 53°46' E 000°41'2020.0
2016-Jul-23 07:33N 54°00' E 000°18'2120.8
2016-Jul-23 06:33N 54°16' W 000°06'4320.0
2016-Jul-23 04:24N 54°40' W 001°08'7 0.4
2016-Jul-22 09:33N 54°44' W 000°58'1817.4
2016-Jul-22 08:33N 54°52' W 000°31'1917.0
2016-Jul-22 07:26N 54°60' W 000°00'36417.4
2016-Jul-21 10:28N 57°41' E 009°48'1516.8
2016-Jul-21 09:33N 57°45' E 010°15'1717.3
2016-Jul-21 08:34N 57°48' E 010°47'1817.7
2016-Jul-21 07:34N 57°36' E 011°11'1717.0
2016-Jul-21 06:34N 57°22' E 011°30'1717.1
2016-Jul-21 05:33N 57°06' E 011°42'1717.2
2016-Jul-21 04:33N 56°50' E 011°52'1716.9
2016-Jul-21 03:34N 56°36' E 012°08'1817.7
2016-Jul-21 02:34N 56°19' E 012°22'1919.4
2016-Jul-21 01:34N 56°03' E 012°40'1817.8
2016-Jul-21 00:34N 55°45' E 012°42'1313.3
2016-Jul-20 23:33N 55°32' E 012°43'1414.4
2016-Jul-20 22:33N 55°17' E 012°45'1717.5
2016-Jul-20 21:33N 55°15' E 013°15'1817.9
2016-Jul-20 20:33N 55°14' E 013°47'1717.4
2016-Jul-20 19:33N 55°15' E 014°17'1717.3
2016-Jul-20 18:33N 55°26' E 014°41'1817.9
2016-Jul-20 17:33N 55°27' E 015°12'1817.7
2016-Jul-20 16:32N 55°27' E 015°44'1817.5
2016-Jul-20 15:29N 55°28' E 016°16'1717.7
2016-Jul-20 14:33N 55°29' E 016°45'1817.6
2016-Jul-20 13:33N 55°30' E 017°17'1717.6
2016-Jul-20 12:33N 55°32' E 017°47'1817.7
2016-Jul-20 11:33N 55°34' E 018°18'1817.5
2016-Jul-20 10:33N 55°36' E 018°49'1817.5
2016-Jul-20 09:33N 55°38' E 019°20'1817.8
2016-Jul-20 08:33N 55°40' E 019°51'1817.8
2016-Jul-20 07:33N 55°42' E 020°23'1817.7
2016-Jul-20 06:34N 55°44' E 020°54'9 9.3
2016-Jul-20 05:33N 55°40' E 021°09'1 1.4
2016-Jul-20 04:34N 55°39' E 021°10'0 0.0
2016-Jul-20 03:19N 55°39' E 021°10'0 0.0
2016-Jul-20 02:33N 55°39' E 021°10'0 0.0
2016-Jul-20 01:33N 55°39' E 021°10'0 0.0
2016-Jul-20 00:33N 55°39' E 021°10'0 0.0
2016-Jul-19 23:33N 55°39' E 021°10'0 0.0
2016-Jul-19 22:34N 55°39' E 021°10'0 0.0
2016-Jul-19 21:33N 55°39' E 021°10'30 9.1
2016-Jul-19 18:13N 56°04' E 020°39'1218.2
2016-Jul-19 17:33N 56°16' E 020°36'18317.7
2016-Jul-19 07:15N 59°14' E 021°50'1317.9
2016-Jul-19 06:32N 59°22' E 022°11'3417.4
2016-Jul-19 04:33N 59°36' E 023°12'1717.4
2016-Jul-19 03:33N 59°41' E 023°45'2017.4
2016-Jul-19 02:24N 59°46' E 024°23'1517.1
2016-Jul-19 01:33N 59°53' E 024°49'23 2.2
2016-Jul-18 15:07N 60°13' E 025°12'0 0.0
2016-Jul-18 14:22N 60°13' E 025°12'0 0.1
2016-Jul-18 13:33N 60°13' E 025°12'0 0.0
2016-Jul-18 12:32N 60°13' E 025°12'0 0.0
2016-Jul-18 11:27N 60°13' E 025°11'23 2.2
2016-Jul-18 01:07N 59°51' E 024°55'915.7
2016-Jul-18 00:33N 59°46' E 024°41'2216.5
2016-Jul-17 23:13N 59°39' E 023°60'1116.5
2016-Jul-17 22:34N 59°36' E 023°39'1616.5
2016-Jul-17 21:34N 59°31' E 023°08'  
Track history (hours):
 
Tides and Currents Weather Stations Pressure Air Temp Water Temp Dewpoint Dewpoint Depression Visibility Wind Speed Wind Dir Waves Ship Positions

Containerships 6

Last reported at 2016-Jul-27 03:31 UTC. Time now 2016-Jul-27 05:43 UTC.
Position N 60°13' E 025°12'.

Length 155 m; beam 21.8 m; draft 8.9 m.

Type: Ship (hazmat cat A). MMSI: 211315096.

Date/timePositionNaut miles runAvg speedWind from/ knotsBaromVisibWave heightAir tempDewpointWater temp
2016-Jul-27 03:31N 60°13' E 025°12'1111.5
2016-Jul-27 02:33N 60°02' E 025°07'1716.7
2016-Jul-27 01:33N 59°48' E 024°50'1716.8
2016-Jul-27 00:33N 59°43' E 024°18'1616.5
2016-Jul-26 23:33N 59°38' E 023°47'1716.8
2016-Jul-26 22:33N 59°33' E 023°15'1816.8
2016-Jul-26 21:28N 59°27' E 022°41'1516.7
2016-Jul-26 20:33N 59°18' E 022°17'1717.0
2016-Jul-26 19:33N 59°07' E 021°52'8516.9
2016-Jul-26 14:33N 57°60' E 020°13'5917.3
2016-Jul-26 11:08N 57°13' E 019°05'5116.9
2016-Jul-26 08:07N 56°36' E 018°02'2917.3
2016-Jul-26 06:27N 56°19' E 017°19'1617.7
2016-Jul-26 05:33N 56°09' E 016°57'1917.8
2016-Jul-26 04:28N 55°58' E 016°29'1718.2
2016-Jul-26 03:33N 55°49' E 016°03'1818.1
2016-Jul-26 02:34N 55°40' E 015°36'1818.1
2016-Jul-26 01:33N 55°32' E 015°07'1817.9
2016-Jul-26 00:33N 55°23' E 014°40'1817.7
2016-Jul-25 23:33N 55°11' E 014°17'1817.9
2016-Jul-25 22:34N 55°11' E 013°46'1817.6
2016-Jul-25 21:33N 55°14' E 013°15'1717.4
2016-Jul-25 20:33N 55°16' E 012°45'1414.2
2016-Jul-25 19:33N 55°30' E 012°42'1312.8
2016-Jul-25 18:34N 55°43' E 012°41'1716.7
2016-Jul-25 17:34N 56°00' E 012°40'1616.2
2016-Jul-25 16:33N 56°11' E 012°19'2217.0
2016-Jul-25 15:16N 56°30' E 011°58'1317.7
2016-Jul-25 14:34N 56°42' E 011°54'1817.8
2016-Jul-25 13:34N 56°59' E 011°41'1717.2
2016-Jul-25 12:33N 57°15' E 011°31'1716.9
2016-Jul-25 11:33N 57°30' E 011°18'1717.3
2016-Jul-25 10:34N 57°42' E 010°54'1616.3
2016-Jul-25 09:34N 57°45' E 010°24'1818.4
2016-Jul-25 08:33N 57°38' E 009°52'12718.0
2016-Jul-25 01:29N 56°05' E 007°14'1718.2
2016-Jul-25 00:33N 55°50' E 006°59'1818.2
2016-Jul-24 23:34N 55°35' E 006°42'1818.3
2016-Jul-24 22:33N 55°19' E 006°26'2018.5
2016-Jul-24 21:29N 55°02' E 006°07'1718.4
2016-Jul-24 20:33N 54°47' E 005°52'1918.4
2016-Jul-24 19:30N 54°31' E 005°34'1718.3
2016-Jul-24 18:33N 54°16' E 005°19'1818.1
2016-Jul-24 17:34N 54°00' E 005°05'1817.8
2016-Jul-24 16:34N 53°43' E 004°54'2317.4
2016-Jul-24 15:14N 53°22' E 004°40'1217.1
2016-Jul-24 14:33N 53°11' E 004°31'1717.3
2016-Jul-24 13:33N 52°56' E 004°19'1717.2
2016-Jul-24 12:34N 52°41' E 004°05'1716.8
2016-Jul-24 11:34N 52°26' E 003°54'1717.4
2016-Jul-24 10:33N 52°08' E 003°55'1515.0
2016-Jul-24 09:34N 51°57' E 004°11'10 9.7
2016-Jul-24 08:33N 51°53' E 004°25'0 0.1
2016-Jul-24 07:33N 51°53' E 004°25'0 0.0
2016-Jul-24 06:33N 51°53' E 004°25'0 0.0
2016-Jul-24 05:33N 51°53' E 004°25'0 0.0
2016-Jul-24 04:33N 51°53' E 004°25'0 0.0
2016-Jul-24 03:33N 51°53' E 004°25'0 0.0
2016-Jul-24 02:33N 51°53' E 004°25'0 0.0
2016-Jul-24 01:34N 51°53' E 004°25'0 0.0
2016-Jul-24 00:33N 51°53' E 004°25'0 0.0
2016-Jul-23 23:34N 51°53' E 004°25'0 0.0
2016-Jul-23 22:33N 51°53' E 004°25'0 0.0
2016-Jul-23 21:33N 51°53' E 004°25'0 0.0
2016-Jul-23 20:33N 51°53' E 004°25'0 0.0
2016-Jul-23 19:33N 51°53' E 004°25'0 0.4
2016-Jul-23 18:34N 51°53' E 004°24'9 9.4
2016-Jul-23 17:33N 51°57' E 004°11'1515.4
2016-Jul-23 16:33N 52°02' E 003°47'2120.5
2016-Jul-23 15:32N 52°13' E 003°18'2017.6
2016-Jul-23 14:24N 52°24' E 002°51'1719.1
2016-Jul-23 13:30N 52°33' E 002°27'2019.6
2016-Jul-23 12:29N 52°45' E 002°01'1920.0
2016-Jul-23 11:33N 52°56' E 001°36'2120.4
2016-Jul-23 10:33N 53°12' E 001°16'2019.7
2016-Jul-23 09:33N 53°30' E 000°60'1919.4
2016-Jul-23 08:33N 53°46' E 000°41'2020.0
2016-Jul-23 07:33N 54°00' E 000°18'2120.8
2016-Jul-23 06:33N 54°16' W 000°06'4320.0
2016-Jul-23 04:24N 54°40' W 001°08'7 0.4
2016-Jul-22 09:33N 54°44' W 000°58'1817.4
2016-Jul-22 08:33N 54°52' W 000°31'1917.0
2016-Jul-22 07:26N 54°60' W 000°00'36417.4
2016-Jul-21 10:28N 57°41' E 009°48'1516.8
2016-Jul-21 09:33N 57°45' E 010°15'1717.3
2016-Jul-21 08:34N 57°48' E 010°47'1817.7
2016-Jul-21 07:34N 57°36' E 011°11'1717.0
2016-Jul-21 06:34N 57°22' E 011°30'1717.1
2016-Jul-21 05:33N 57°06' E 011°42'1717.2
2016-Jul-21 04:33N 56°50' E 011°52'1716.9
2016-Jul-21 03:34N 56°36' E 012°08'1817.7
2016-Jul-21 02:34N 56°19' E 012°22'1919.4
2016-Jul-21 01:34N 56°03' E 012°40'1817.8
2016-Jul-21 00:34N 55°45' E 012°42'1313.3
2016-Jul-20 23:33N 55°32' E 012°43'1414.4
2016-Jul-20 22:33N 55°17' E 012°45'1717.5
2016-Jul-20 21:33N 55°15' E 013°15'1817.9
2016-Jul-20 20:33N 55°14' E 013°47'1717.4
2016-Jul-20 19:33N 55°15' E 014°17'1717.3
2016-Jul-20 18:33N 55°26' E 014°41'1817.9
2016-Jul-20 17:33N 55°27' E 015°12'1817.7
2016-Jul-20 16:32N 55°27' E 015°44'1817.5
2016-Jul-20 15:29N 55°28' E 016°16'1717.7
2016-Jul-20 14:33N 55°29' E 016°45'1817.6
2016-Jul-20 13:33N 55°30' E 017°17'1717.6
2016-Jul-20 12:33N 55°32' E 017°47'1817.7
2016-Jul-20 11:33N 55°34' E 018°18'1817.5
2016-Jul-20 10:33N 55°36' E 018°49'1817.5
2016-Jul-20 09:33N 55°38' E 019°20'1817.8
2016-Jul-20 08:33N 55°40' E 019°51'1817.8
2016-Jul-20 07:33N 55°42' E 020°23'1817.7
2016-Jul-20 06:34N 55°44' E 020°54'9 9.3
2016-Jul-20 05:33N 55°40' E 021°09'1 1.4
2016-Jul-20 04:34N 55°39' E 021°10'0 0.0
2016-Jul-20 03:19N 55°39' E 021°10'0 0.0
2016-Jul-20 02:33N 55°39' E 021°10'0 0.0
2016-Jul-20 01:33N 55°39' E 021°10'0 0.0
2016-Jul-20 00:33N 55°39' E 021°10'0 0.0
2016-Jul-19 23:33N 55°39' E 021°10'0 0.0
2016-Jul-19 22:34N 55°39' E 021°10'0 0.0
2016-Jul-19 21:33N 55°39' E 021°10'30 9.1
2016-Jul-19 18:13N 56°04' E 020°39'1218.2
2016-Jul-19 17:33N 56°16' E 020°36'18317.7
2016-Jul-19 07:15N 59°14' E 021°50'1317.9
2016-Jul-19 06:32N 59°22' E 022°11'3417.4
2016-Jul-19 04:33N 59°36' E 023°12'1717.4
2016-Jul-19 03:33N 59°41' E 023°45'2017.4
2016-Jul-19 02:24N 59°46' E 024°23'1517.1
2016-Jul-19 01:33N 59°53' E 024°49'23 2.2
2016-Jul-18 15:07N 60°13' E 025°12'0 0.0
2016-Jul-18 14:22N 60°13' E 025°12'0 0.1
2016-Jul-18 13:33N 60°13' E 025°12'0 0.0
2016-Jul-18 12:32N 60°13' E 025°12'0 0.0
2016-Jul-18 11:27N 60°13' E 025°11'23 2.2
2016-Jul-18 01:07N 59°51' E 024°55'915.7
2016-Jul-18 00:33N 59°46' E 024°41'2216.5
2016-Jul-17 23:13N 59°39' E 023°60'1116.5
2016-Jul-17 22:34N 59°36' E 023°39'1616.5
2016-Jul-17 21:34N 59°31' E 023°08'  

Dump ship's entire track history